Thornville, Ohio
Current Conditions -  °F | °C
As of 2:54 AM on Friday 31 Oct 2014 (Local Time) from KVTA Reporting Station
Overcast Overcast  
Wind Chill: 45°   Ceiling: 4700
Heat Index: 45°   Visibility: 10mi
Dew Point: 35°   Wind: 3mph
Humidity: 68%   Direction: 240°WSW
Pressure: 30.01"   Gusts: NA
Location:  39.9°N, 82.42°W
Report Text: KVTA 310654Z AUTO 24003KT 10SM OVC047 07/02 A3001 RMK AO2 SLP164 T00720017
Loading
Personal Weather Stations






























Interactive Weather Map New forecast layout! Learn more

10-Day Weather Forecast

Advertisements
Track Severe Weather on mobile